createdAt,value
2019-05-06T00:01:50.350Z,96772.09
2019-05-06T00:04:21.369Z,96772.67
2019-05-06T00:06:54.607Z,96772.98
2019-05-06T00:09:25.316Z,96772.53
2019-05-06T00:11:56.474Z,96775.19
2019-05-06T00:14:27.541Z,96772.17
2019-05-06T00:16:58.896Z,96774.51
2019-05-06T00:19:29.955Z,96773.84
2019-05-06T00:22:00.974Z,96776.60
2019-05-06T00:24:38.296Z,96774.09
2019-05-06T00:27:15.290Z,96773.98
2019-05-06T00:29:47.424Z,96766.48
2019-05-06T00:32:18.614Z,96773.27
2019-05-06T00:34:49.680Z,96772.97
2019-05-06T00:37:20.677Z,96773.79
2019-05-06T00:40:00.425Z,96768.31
2019-05-06T00:42:34.691Z,96769.51
2019-05-06T00:45:07.916Z,96770.30
2019-05-06T00:47:39.939Z,96770.42
2019-05-06T00:50:11.203Z,96774.53
2019-05-06T00:52:44.580Z,96776.96
2019-05-06T00:55:15.138Z,96778.55
2019-05-06T00:57:46.538Z,96781.19
2019-05-06T01:00:29.774Z,96782.03
2019-05-06T01:03:01.356Z,96779.54
2019-05-06T01:05:33.734Z,96780.42
2019-05-06T01:08:05.218Z,96779.23
2019-05-06T01:10:36.359Z,96781.49
2019-05-06T01:13:26.379Z,96781.49
2019-05-06T01:15:57.428Z,96786.73
2019-05-06T01:18:28.466Z,96784.75
2019-05-06T01:21:14.572Z,96786.98
2019-05-06T01:23:46.737Z,96782.81
2019-05-06T01:26:19.002Z,96790.05
2019-05-06T01:28:50.133Z,96790.73
2019-05-06T01:31:21.262Z,96792.98
2019-05-06T01:33:53.531Z,96786.80
2019-05-06T01:36:25.105Z,96787.44
2019-05-06T01:39:08.556Z,96786.43
2019-05-06T01:41:54.786Z,96788.99
2019-05-06T01:44:25.788Z,96783.75
2019-05-06T01:46:56.858Z,96791.55
2019-05-06T01:49:27.958Z,96790.42
2019-05-06T01:51:59.109Z,96793.63
2019-05-06T01:54:30.119Z,96798.41
2019-05-06T01:57:01.114Z,96796.55
2019-05-06T01:59:34.047Z,96797.49
2019-05-06T02:02:05.811Z,96799.53
2019-05-06T02:04:36.908Z,96797.80
2019-05-06T02:07:07.905Z,96792.43
2019-05-06T02:09:40.105Z,96802.27
2019-05-06T02:12:11.259Z,96806.54
2019-05-06T02:14:43.667Z,96805.53
2019-05-06T02:17:14.762Z,96805.59
2019-05-06T02:19:45.857Z,96813.21
2019-05-06T02:22:25.652Z,96808.66
2019-05-06T02:25:00.227Z,96805.83
2019-05-06T02:27:31.240Z,96800.11
2019-05-06T02:30:15.281Z,96812.75
2019-05-06T02:32:55.741Z,96803.21
2019-05-06T02:35:36.534Z,96811.64
2019-05-06T02:38:26.774Z,96808.09
2019-05-06T02:40:55.748Z,96814.27
2019-05-06T02:43:26.884Z,96813.81
2019-05-06T02:45:58.638Z,96805.16
2019-05-06T02:48:47.245Z,96806.89
2019-05-06T02:51:24.176Z,96811.20
2019-05-06T02:53:54.516Z,96816.89
2019-05-06T02:56:25.524Z,96816.77
2019-05-06T02:58:56.588Z,96810.52
2019-05-06T03:01:27.581Z,96811.59
2019-05-06T03:03:58.673Z,96817.71
2019-05-06T03:06:29.691Z,96819.45
2019-05-06T03:09:03.123Z,96816.01
2019-05-06T03:11:35.830Z,96815.16
2019-05-06T03:14:06.907Z,96816.94
2019-05-06T03:16:37.988Z,96813.96
2019-05-06T03:19:13.185Z,96812.53
2019-05-06T03:22:05.250Z,96813.32
2019-05-06T03:24:43.855Z,96814.64
2019-05-06T03:27:14.914Z,96811.47
2019-05-06T03:29:46.001Z,96819.08
2019-05-06T03:32:25.257Z,96822.73
2019-05-06T03:35:13.631Z,96815.64
2019-05-06T03:37:24.114Z,96816.81
2019-05-06T03:39:55.682Z,96818.33
2019-05-06T03:42:26.885Z,96822.26
2019-05-06T03:45:04.182Z,96815.83
2019-05-06T03:47:54.979Z,96823.14
2019-05-06T03:50:26.076Z,96821.89
2019-05-06T03:52:57.638Z,96822.19
2019-05-06T03:55:29.314Z,96825.18
2019-05-06T03:58:03.891Z,96827.31
2019-05-06T04:00:35.542Z,96827.08
2019-05-06T04:03:07.605Z,96828.50
2019-05-06T04:05:39.761Z,96828.80
2019-05-06T04:08:12.714Z,96834.48
2019-05-06T04:10:44.711Z,96830.30
2019-05-06T04:13:15.954Z,96830.17
2019-05-06T04:16:03.801Z,96829.05
2019-05-06T04:18:36.748Z,96833.23
2019-05-06T04:21:27.426Z,96835.61
2019-05-06T04:24:15.667Z,96833.81
2019-05-06T04:26:58.318Z,96838.41
2019-05-06T04:29:29.546Z,96843.53
2019-05-06T04:32:03.471Z,96845.02
2019-05-06T04:34:35.008Z,96848.28
2019-05-06T04:37:06.354Z,96847.41
2019-05-06T04:39:38.061Z,96849.02
2019-05-06T04:42:10.415Z,96853.89
2019-05-06T04:44:43.833Z,96855.27
2019-05-06T04:47:16.406Z,96862.77
2019-05-06T04:49:47.550Z,96860.27
2019-05-06T04:52:18.844Z,96860.75
2019-05-06T04:54:53.190Z,96867.83
2019-05-06T04:57:24.020Z,96868.13
2019-05-06T04:59:56.495Z,96872.61
2019-05-06T05:02:29.335Z,96870.38
2019-05-06T05:05:04.130Z,96870.88
2019-05-06T05:07:34.512Z,96871.11
2019-05-06T05:10:12.567Z,96870.88
2019-05-06T05:13:23.176Z,96874.38
2019-05-06T05:16:12.827Z,96871.33
2019-05-06T05:18:56.689Z,96868.13
2019-05-06T05:21:27.845Z,96874.73
2019-05-06T05:23:59.034Z,96878.48
2019-05-06T05:26:32.263Z,96883.05
2019-05-06T05:29:03.754Z,96883.48
2019-05-06T05:31:35.174Z,96885.31
2019-05-06T05:34:06.416Z,96890.80
2019-05-06T05:36:37.559Z,96887.78
2019-05-06T05:39:08.718Z,96895.73
2019-05-06T05:41:42.752Z,96898.23
2019-05-06T05:44:26.150Z,96898.41
2019-05-06T05:46:57.402Z,96903.07
2019-05-06T05:49:39.311Z,96907.70
2019-05-06T05:52:12.630Z,96913.44
2019-05-06T05:54:43.987Z,96909.20
2019-05-06T05:57:15.183Z,96915.08
2019-05-06T05:59:46.256Z,96921.45
2019-05-06T06:02:17.583Z,96920.08
2019-05-06T06:04:54.738Z,96921.23
2019-05-06T06:07:22.914Z,96916.20
2019-05-06T06:10:04.019Z,96919.64
2019-05-06T06:12:35.279Z,96927.70
2019-05-06T06:15:25.766Z,96924.25
2019-05-06T06:18:33.366Z,96926.00
2019-05-06T06:21:38.383Z,96919.84
2019-05-06T06:24:22.620Z,96932.62
2019-05-06T06:26:54.097Z,96924.40
2019-05-06T06:29:25.392Z,96924.81
2019-05-06T06:32:14.297Z,96925.64
2019-05-06T06:35:07.485Z,96929.25
2019-05-06T06:37:45.662Z,96930.89
2019-05-06T06:40:18.899Z,96931.78
2019-05-06T06:42:53.684Z,96926.57
2019-05-06T06:45:24.702Z,96927.70
2019-05-06T06:47:56.033Z,96928.74
2019-05-06T06:50:27.249Z,96933.03
2019-05-06T06:52:58.381Z,96930.82
2019-05-06T06:55:31.732Z,96930.19
2019-05-06T06:58:23.359Z,96936.90
2019-05-06T07:01:14.833Z,96935.95
2019-05-06T07:04:11.238Z,96938.34
2019-05-06T07:06:45.140Z,96933.70
2019-05-06T07:09:16.210Z,96939.66
2019-05-06T07:11:47.338Z,96931.95
2019-05-06T07:18:14.568Z,96935.75
2019-05-06T07:20:54.094Z,96934.42
2019-05-06T07:23:25.705Z,96944.67
2019-05-06T07:25:57.223Z,96942.52
2019-05-06T07:28:28.411Z,96941.39
2019-05-06T07:31:16.697Z,96943.45
2019-05-06T07:33:33.524Z,96944.77
2019-05-06T07:36:05.235Z,96948.00
2019-05-06T07:38:36.335Z,96945.39
2019-05-06T07:41:14.714Z,96950.20
2019-05-06T07:44:12.918Z,96945.02
2019-05-06T07:46:52.550Z,96952.78
2019-05-06T07:49:23.702Z,96956.48
2019-05-06T07:51:54.796Z,96954.49
2019-05-06T07:54:25.864Z,96954.42
2019-05-06T07:56:56.955Z,96961.66
2019-05-06T07:59:27.947Z,96963.62
2019-05-06T08:01:58.943Z,96962.45
2019-05-06T08:04:32.305Z,96966.61
2019-05-06T08:07:03.216Z,96960.44
2019-05-06T08:09:34.434Z,96963.52
2019-05-06T08:12:05.881Z,96962.69
2019-05-06T08:14:43.510Z,96954.94
2019-05-06T08:17:38.599Z,96965.21
2019-05-06T08:20:12.908Z,96962.31
2019-05-06T08:23:12.700Z,96965.56
2019-05-06T08:25:46.444Z,96969.44
2019-05-06T08:28:17.673Z,96968.75
2019-05-06T08:30:49.105Z,96973.07
2019-05-06T08:33:21.980Z,96979.33
2019-05-06T08:35:54.594Z,96978.80
2019-05-06T08:38:25.796Z,96976.70
2019-05-06T08:40:56.823Z,96981.43
2019-05-06T08:43:27.824Z,96977.52
2019-05-06T08:45:58.812Z,96974.69
2019-05-06T08:48:32.393Z,96973.70
2019-05-06T08:51:09.954Z,96973.55
2019-05-06T08:54:05.892Z,96966.67
2019-05-06T08:56:36.889Z,96965.94
2019-05-06T08:59:07.885Z,96967.56
2019-05-06T09:01:47.671Z,96962.94
2019-05-06T09:04:18.741Z,96970.48
2019-05-06T09:06:49.848Z,96972.17
2019-05-06T09:09:22.378Z,96971.66
2019-05-06T09:11:53.762Z,96973.91
2019-05-06T09:14:24.868Z,96967.58
2019-05-06T09:16:56.318Z,96965.81
2019-05-06T09:19:27.363Z,96967.46
2019-05-06T09:21:58.392Z,96965.81
2019-05-06T09:24:31.941Z,96967.36
2019-05-06T09:27:13.391Z,96970.77
2019-05-06T09:29:51.980Z,96965.44
2019-05-06T09:32:26.497Z,96970.55
2019-05-06T09:34:58.946Z,96963.16
2019-05-06T09:37:32.351Z,96964.16
2019-05-06T09:40:03.091Z,96959.13
2019-05-06T09:42:34.550Z,96953.66
2019-05-06T09:45:06.867Z,96959.68
2019-05-06T09:48:03.118Z,96956.88
2019-05-06T09:50:46.804Z,96958.77
2019-05-06T09:53:29.843Z,96960.69
2019-05-06T09:56:19.098Z,96954.08
2019-05-06T09:58:52.746Z,96950.57
2019-05-06T10:01:23.022Z,96953.31
2019-05-06T10:03:54.080Z,96951.91
2019-05-06T10:06:25.208Z,96947.48
2019-05-06T10:08:56.355Z,96948.11
2019-05-06T10:11:27.427Z,96942.23
2019-05-06T10:13:58.645Z,96939.18
2019-05-06T10:16:32.458Z,96945.64
2019-05-06T10:19:03.341Z,96946.86
2019-05-06T10:21:34.504Z,96947.31
2019-05-06T10:24:05.936Z,96946.09
2019-05-06T10:26:43.215Z,96950.17
2019-05-06T10:29:32.602Z,96936.27
2019-05-06T10:32:27.187Z,96935.96
2019-05-06T10:34:58.392Z,96936.37
2019-05-06T10:38:17.292Z,96938.22
2019-05-06T10:41:02.851Z,96934.36
2019-05-06T10:43:36.136Z,96940.06
2019-05-06T10:46:07.353Z,96931.35
2019-05-06T10:48:38.637Z,96928.44
2019-05-06T10:51:18.881Z,96923.89
2019-05-06T10:53:50.928Z,96931.38
2019-05-06T10:56:50.687Z,96933.77
2019-05-06T10:59:14.317Z,96935.20
2019-05-06T11:01:47.383Z,96930.16
2019-05-06T11:04:18.479Z,96925.15
2019-05-06T11:06:52.379Z,96917.81
2019-05-06T11:09:22.840Z,96913.17
2019-05-06T11:11:53.853Z,96912.44
2019-05-06T11:14:24.938Z,96910.91
2019-05-06T11:16:55.968Z,96916.33
2019-05-06T11:19:26.997Z,96909.00
2019-05-06T11:21:58.121Z,96911.44
2019-05-06T11:24:29.206Z,96912.75
2019-05-06T11:27:00.241Z,96920.22
2019-05-06T11:29:36.545Z,96917.53
2019-05-06T11:32:12.868Z,96922.02
2019-05-06T11:34:52.627Z,96917.33
2019-05-06T11:37:50.190Z,96920.75
2019-05-06T11:40:18.267Z,96924.92
2019-05-06T11:42:49.425Z,96919.47
2019-05-06T11:45:22.705Z,96919.59
2019-05-06T11:47:55.749Z,96914.52
2019-05-06T11:50:26.807Z,96915.34
2019-05-06T11:52:57.896Z,96915.02
2019-05-06T11:55:36.142Z,96910.06
2019-05-06T11:58:03.075Z,96907.63
2019-05-06T12:00:39.591Z,96904.78
2019-05-06T12:03:12.739Z,96908.13
2019-05-06T12:05:43.956Z,96901.94
2019-05-06T12:08:15.766Z,96900.80
2019-05-06T12:10:46.951Z,96907.36
2019-05-06T12:13:17.990Z,96903.23
2019-05-06T12:15:49.009Z,96900.19
2019-05-06T12:18:22.927Z,96904.52
2019-05-06T12:20:52.941Z,96904.81
2019-05-06T12:23:24.912Z,96907.22
2019-05-06T12:25:55.916Z,96905.70
2019-05-06T12:28:26.996Z,96908.98
2019-05-06T12:30:58.114Z,96906.22
2019-05-06T12:33:35.328Z,96905.23
2019-05-06T12:36:18.859Z,96912.00
2019-05-06T12:39:14.874Z,96911.17
2019-05-06T12:42:14.639Z,96906.02
2019-05-06T12:45:13.088Z,96902.36
2019-05-06T12:47:48.403Z,96904.20
2019-05-06T12:50:19.660Z,96898.19
2019-05-06T12:52:52.542Z,96903.06
2019-05-06T12:55:25.659Z,96907.95
2019-05-06T12:57:56.703Z,96906.22
2019-05-06T13:00:29.728Z,96908.42
2019-05-06T13:03:02.260Z,96906.78
2019-05-06T13:05:33.466Z,96907.86
2019-05-06T13:08:06.228Z,96902.55
2019-05-06T13:10:37.185Z,96900.06
2019-05-06T13:13:08.266Z,96898.66
2019-05-06T13:15:43.242Z,96902.91
2019-05-06T13:18:13.225Z,96895.61
2019-05-06T13:20:49.407Z,96900.55
2019-05-06T13:23:38.765Z,96895.48
2019-05-06T13:26:09.937Z,96898.89
2019-05-06T13:28:45.348Z,96902.08
2019-05-06T13:31:21.271Z,96908.64
2019-05-06T13:33:54.525Z,96904.47
2019-05-06T13:36:25.596Z,96902.73
2019-05-06T13:39:10.670Z,96906.09
2019-05-06T13:41:29.494Z,96899.03
2019-05-06T13:44:09.446Z,96900.76
2019-05-06T13:46:45.207Z,96899.23
2019-05-06T13:49:34.248Z,96901.55
2019-05-06T13:52:07.397Z,96892.70
2019-05-06T13:54:38.588Z,96891.56
2019-05-06T13:57:12.241Z,96884.91
2019-05-06T13:59:44.184Z,96889.19
2019-05-06T14:02:27.355Z,96889.20
2019-05-06T14:04:58.440Z,96891.87
2019-05-06T14:07:29.454Z,96889.80
2019-05-06T14:10:02.715Z,96884.44
2019-05-06T14:12:34.203Z,96878.73
2019-05-06T14:15:06.279Z,96888.77
2019-05-06T14:17:37.434Z,96888.77
2019-05-06T14:20:09.184Z,96887.36
2019-05-06T14:22:40.370Z,96884.86
2019-05-06T14:25:29.770Z,96885.01
2019-05-06T14:28:06.190Z,96883.95
2019-05-06T14:30:54.512Z,96884.94
2019-05-06T14:33:25.520Z,96888.34
2019-05-06T14:35:56.657Z,96894.30
2019-05-06T14:38:28.034Z,96896.17
2019-05-06T14:41:14.952Z,96891.77
2019-05-06T14:43:45.957Z,96893.67
2019-05-06T14:46:17.263Z,96889.64
2019-05-06T14:48:48.421Z,96893.20
2019-05-06T14:51:19.482Z,96894.41
2019-05-06T14:53:52.975Z,96893.98
2019-05-06T14:56:32.900Z,96892.38
2019-05-06T14:59:04.682Z,96892.52
2019-05-06T15:01:37.220Z,96889.45
2019-05-06T15:04:08.401Z,96890.70
2019-05-06T15:06:39.397Z,96891.64
2019-05-06T15:09:13.379Z,96893.81
2019-05-06T15:11:44.091Z,96886.55
2019-05-06T15:14:15.172Z,96887.44
2019-05-06T15:16:46.203Z,96892.16
2019-05-06T15:19:17.291Z,96894.78
2019-05-06T15:21:48.286Z,96891.13
2019-05-06T15:24:21.900Z,96889.69
2019-05-06T15:26:52.289Z,96884.16
2019-05-06T15:29:23.831Z,96889.77
2019-05-06T15:32:12.836Z,96887.75
2019-05-06T15:35:08.197Z,96884.21
2019-05-06T15:37:47.445Z,96886.03
2019-05-06T15:40:31.073Z,96886.58
2019-05-06T15:42:53.335Z,96882.88
2019-05-06T15:45:24.734Z,96892.84
2019-05-06T15:47:55.739Z,96897.69
2019-05-06T15:50:26.890Z,96893.33
2019-05-06T15:52:57.838Z,96894.95
2019-05-06T15:55:28.944Z,96904.66
2019-05-06T15:57:59.931Z,96893.14
2019-05-06T16:00:33.034Z,96900.28
2019-05-06T16:03:03.927Z,96893.02
2019-05-06T16:05:34.957Z,96904.20
2019-05-06T16:08:06.044Z,96897.90
2019-05-06T16:10:51.402Z,96899.28
2019-05-06T16:13:09.802Z,96902.13
2019-05-06T16:15:42.441Z,96894.55
2019-05-06T16:18:13.458Z,96893.75
2019-05-06T16:20:44.453Z,96897.77
2019-05-06T16:23:24.311Z,96894.97
2019-05-06T16:25:55.446Z,96896.37
2019-05-06T16:28:26.588Z,96895.26
2019-05-06T16:30:57.734Z,96898.77
2019-05-06T16:33:28.778Z,96904.52
2019-05-06T16:35:59.831Z,96900.80
2019-05-06T16:38:32.332Z,96897.95
2019-05-06T16:41:12.775Z,96901.28
2019-05-06T16:43:37.551Z,96901.95
2019-05-06T16:46:08.987Z,96910.70
2019-05-06T16:48:40.138Z,96907.73
2019-05-06T16:51:12.568Z,96904.89
2019-05-06T16:53:43.820Z,96906.20
2019-05-06T16:56:33.260Z,96903.77
2019-05-06T16:59:04.782Z,96905.43
2019-05-06T17:01:37.464Z,96912.77
2019-05-06T17:04:17.663Z,96906.75
2019-05-06T17:06:48.658Z,96908.97
2019-05-06T17:09:24.264Z,96908.32
2019-05-06T17:11:52.476Z,96908.48
2019-05-06T17:14:23.554Z,96906.13
2019-05-06T17:16:54.647Z,96909.02
2019-05-06T17:19:25.667Z,96907.58
2019-05-06T17:21:56.838Z,96907.91
2019-05-06T17:24:28.030Z,96909.59
2019-05-06T17:26:59.040Z,96905.64
2019-05-06T17:30:04.075Z,96907.20
2019-05-06T17:32:37.760Z,96911.90
2019-05-06T17:35:12.071Z,96916.97
2019-05-06T17:38:02.231Z,96916.39
2019-05-06T17:40:33.236Z,96915.65
2019-05-06T17:43:04.467Z,96918.82
2019-05-06T17:45:58.435Z,96918.17
2019-05-06T17:48:32.839Z,96918.41
2019-05-06T17:51:13.738Z,96912.14
2019-05-06T17:53:52.304Z,96916.80
2019-05-06T17:56:23.626Z,96921.05
2019-05-06T17:58:54.643Z,96919.38
2019-05-06T18:01:34.531Z,96922.31
2019-05-06T18:04:06.108Z,96927.82
2019-05-06T18:06:37.167Z,96932.05
2019-05-06T18:09:09.678Z,96924.68
2019-05-06T18:11:51.247Z,96925.12
2019-05-06T18:14:15.677Z,96926.64
2019-05-06T18:16:46.771Z,96927.44
2019-05-06T18:19:17.928Z,96936.08
2019-05-06T18:21:49.080Z,96941.64
2019-05-06T18:24:20.113Z,96938.80
2019-05-06T18:26:52.895Z,96947.11
2019-05-06T18:29:23.993Z,96938.31
2019-05-06T18:31:55.010Z,96944.17
2019-05-06T18:34:26.132Z,96952.42
2019-05-06T18:36:57.180Z,96952.22
2019-05-06T18:39:28.202Z,96952.13
2019-05-06T18:42:14.937Z,96957.41
2019-05-06T18:44:33.271Z,96957.72
2019-05-06T18:47:06.170Z,96956.28
2019-05-06T18:49:37.185Z,96962.06
2019-05-06T18:52:08.190Z,96960.03
2019-05-06T18:54:39.379Z,96957.10
2019-05-06T18:57:12.782Z,96957.72
2019-05-06T18:59:43.681Z,96964.53
2019-05-06T19:02:14.750Z,96965.13
2019-05-06T19:04:56.758Z,96965.82
2019-05-06T19:07:27.773Z,96965.23
2019-05-06T19:10:03.517Z,96968.67
2019-05-06T19:12:40.645Z,96971.92
2019-05-06T19:15:08.615Z,96972.72
2019-05-06T19:17:39.705Z,96983.27
2019-05-06T19:20:11.723Z,96981.84
2019-05-06T19:22:43.522Z,96981.02
2019-05-06T19:25:15.146Z,96981.74
2019-05-06T19:27:46.341Z,96992.48
2019-05-06T19:30:18.006Z,96993.40
2019-05-06T19:32:49.225Z,96990.86
2019-05-06T19:35:20.343Z,96987.51
2019-05-06T19:37:51.526Z,96992.58
2019-05-06T19:40:22.976Z,96994.52
2019-05-06T19:42:54.036Z,96987.59
2019-05-06T19:45:25.180Z,96991.55
2019-05-06T19:47:56.159Z,96995.59
2019-05-06T19:50:27.366Z,96998.23
2019-05-06T19:52:58.492Z,96998.23
2019-05-06T19:55:29.498Z,96996.52
2019-05-06T19:58:02.301Z,96997.01
2019-05-06T20:00:33.456Z,96993.98
2019-05-06T20:03:04.537Z,96991.83
2019-05-06T20:05:41.702Z,96992.53
2019-05-06T20:08:26.766Z,96992.61
2019-05-06T20:11:15.021Z,96983.11
2019-05-06T20:13:46.028Z,96987.25
2019-05-06T20:16:17.062Z,96989.46
2019-05-06T20:18:48.269Z,96991.27
2019-05-06T20:21:19.590Z,96987.92
2019-05-06T20:23:52.601Z,96984.98
2019-05-06T20:26:23.363Z,96985.91
2019-05-06T20:28:54.434Z,96983.78
2019-05-06T20:31:25.661Z,96987.11
2019-05-06T20:33:56.729Z,96982.54
2019-05-06T20:36:28.013Z,96981.56
2019-05-06T20:38:59.055Z,96980.94
2019-05-06T20:41:30.026Z,96975.09
2019-05-06T20:44:02.681Z,96971.62
2019-05-06T20:46:33.796Z,96970.94
2019-05-06T20:49:04.946Z,96970.53
2019-05-06T20:51:35.964Z,96963.61
2019-05-06T20:54:07.299Z,96967.87
2019-05-06T20:56:38.303Z,96971.52
2019-05-06T20:59:09.585Z,96965.46
2019-05-06T21:01:42.509Z,96965.00
2019-05-06T21:04:13.318Z,96955.50
2019-05-06T21:06:44.584Z,96961.76
2019-05-06T21:09:15.646Z,96962.27
2019-05-06T21:11:46.846Z,96962.25
2019-05-06T21:14:17.829Z,96958.23
2019-05-06T21:16:48.820Z,96964.83
2019-05-06T21:19:22.079Z,96967.70
2019-05-06T21:21:52.849Z,96965.92
2019-05-06T21:24:23.913Z,96959.02
2019-05-06T21:26:54.939Z,96961.67
2019-05-06T21:29:26.063Z,96963.65
2019-05-06T21:31:57.148Z,96960.55
2019-05-06T21:34:28.245Z,96957.83
2019-05-06T21:37:02.847Z,96952.53
2019-05-06T21:39:34.928Z,96956.67
2019-05-06T21:42:07.551Z,96950.31
2019-05-06T21:44:38.542Z,96950.82
2019-05-06T21:47:09.548Z,96950.41
2019-05-06T21:49:42.200Z,96951.84
2019-05-06T21:52:13.386Z,96950.59
2019-05-06T21:54:44.375Z,96952.91
2019-05-06T21:57:15.419Z,96944.42
2019-05-06T21:59:46.436Z,96951.14
2019-05-06T22:02:19.943Z,96945.58
2019-05-06T22:04:52.307Z,96944.20
2019-05-06T22:07:24.689Z,96944.19
2019-05-06T22:09:55.683Z,96944.63
2019-05-06T22:12:26.791Z,96950.23
2019-05-06T22:14:57.804Z,96949.22
2019-05-06T22:17:28.872Z,96947.63
2019-05-06T22:19:59.981Z,96952.62
2019-05-06T22:22:32.828Z,96945.75
2019-05-06T22:25:04.901Z,96941.70
2019-05-06T22:27:36.060Z,96939.25
2019-05-06T22:30:07.647Z,96938.84
2019-05-06T22:32:47.837Z,96938.77
2019-05-06T22:35:19.146Z,96934.69
2019-05-06T22:37:52.733Z,96941.25
2019-05-06T22:40:23.762Z,96949.82
2019-05-06T22:42:55.034Z,96948.31
2019-05-06T22:45:26.015Z,96943.36
2019-05-06T22:47:57.065Z,96937.01
2019-05-06T22:50:28.159Z,96935.89
2019-05-06T22:52:59.433Z,96944.02
2019-05-06T22:55:30.429Z,96941.91
2019-05-06T22:58:02.517Z,96944.13
2019-05-06T23:00:36.356Z,96951.26
2019-05-06T23:03:12.365Z,96943.75
2019-05-06T23:05:43.509Z,96941.35
2019-05-06T23:08:14.763Z,96936.63
2019-05-06T23:10:45.821Z,96931.48
2019-05-06T23:13:16.814Z,96938.73
2019-05-06T23:15:47.880Z,96935.84
2019-05-06T23:18:19.041Z,96933.92
2019-05-06T23:20:50.090Z,96935.16
2019-05-06T23:23:22.263Z,96935.53
2019-05-06T23:26:13.031Z,96935.53
2019-05-06T23:28:43.871Z,96938.20
2019-05-06T23:31:14.916Z,96936.96
2019-05-06T23:33:46.358Z,96931.90
2019-05-06T23:36:17.511Z,96929.37
2019-05-06T23:39:58.740Z,96923.89
2019-05-06T23:43:24.334Z,96931.50
2019-05-06T23:46:52.306Z,96930.95
2019-05-06T23:50:17.729Z,96923.57
2019-05-06T23:53:43.000Z,96927.69
2019-05-06T23:56:43.286Z,96918.39
2019-05-06T23:59:16.112Z,96919.13
